Port-Daniel, Canada
Current Conditions -  °F | °C
As of 7:00 AM on Saturday 25 Oct 2014 (Local Time) from CYGP Reporting Station
Light Rain Light Rain  
Wind Chill: 34°   Ceiling: 600
Heat Index: 39°   Visibility: 3mi
Dew Point: 37°   Wind: 7mph
Humidity: 93%   Direction: 30°NNE
Pressure: 29.65"   Gusts: NA
Location:  48.18°N, 64.98°W
Report Text: CYGP 251100Z 03006KT 340V050 3SM -RA BR BKN006 OVC014 04/03 A2965 RMK SF5SC3 SLP042
Loading
Personal Weather Stations






























Interactive Weather Map
Tropical Storm Tracking
New forecast layout! Learn more

10-Day Weather Forecast

Advertisements
Track Severe Weather on mobile